sensor_id;sensor_type;location;lat;lon;timestamp;temperature;humidity
51878;SHT31;37911;51.526;11.536;2023-06-22T00:00:31;22.03;80.29
51878;SHT31;37911;51.526;11.536;2023-06-22T00:03:34;21.97;80.52
51878;SHT31;37911;51.526;11.536;2023-06-22T00:06:40;22.00;80.51
51878;SHT31;37911;51.526;11.536;2023-06-22T00:09:44;22.06;80.64
51878;SHT31;37911;51.526;11.536;2023-06-22T00:12:47;22.01;80.41
51878;SHT31;37911;51.526;11.536;2023-06-22T00:15:50;22.03;79.65
51878;SHT31;37911;51.526;11.536;2023-06-22T00:18:54;22.11;79.22
51878;SHT31;37911;51.526;11.536;2023-06-22T00:22:03;22.10;79.28
51878;SHT31;37911;51.526;11.536;2023-06-22T00:25:07;22.09;79.74
51878;SHT31;37911;51.526;11.536;2023-06-22T00:28:11;21.92;80.18
51878;SHT31;37911;51.526;11.536;2023-06-22T00:31:14;21.89;80.69
51878;SHT31;37911;51.526;11.536;2023-06-22T00:34:17;21.73;81.04
51878;SHT31;37911;51.526;11.536;2023-06-22T00:37:23;21.65;81.47
51878;SHT31;37911;51.526;11.536;2023-06-22T00:40:30;21.59;81.56
51878;SHT31;37911;51.526;11.536;2023-06-22T00:43:34;21.62;81.21
51878;SHT31;37911;51.526;11.536;2023-06-22T00:46:37;21.59;80.91
51878;SHT31;37911;51.526;11.536;2023-06-22T00:49:41;21.58;80.78
51878;SHT31;37911;51.526;11.536;2023-06-22T00:52:48;21.62;80.63
51878;SHT31;37911;51.526;11.536;2023-06-22T00:55:54;21.59;80.67
51878;SHT31;37911;51.526;11.536;2023-06-22T00:59:00;21.56;80.74
51878;SHT31;37911;51.526;11.536;2023-06-22T01:02:04;21.53;81.00
51878;SHT31;37911;51.526;11.536;2023-06-22T01:05:09;21.49;81.25
51878;SHT31;37911;51.526;11.536;2023-06-22T01:08:26;21.43;81.47
51878;SHT31;37911;51.526;11.536;2023-06-22T01:11:36;21.41;81.49
51878;SHT31;37911;51.526;11.536;2023-06-22T01:14:47;21.39;81.51
51878;SHT31;37911;51.526;11.536;2023-06-22T01:17:53;21.50;80.78
51878;SHT31;37911;51.526;11.536;2023-06-22T01:20:57;21.45;80.98
51878;SHT31;37911;51.526;11.536;2023-06-22T01:24:11;21.38;81.15
51878;SHT31;37911;51.526;11.536;2023-06-22T01:27:28;21.35;81.16
51878;SHT31;37911;51.526;11.536;2023-06-22T01:30:38;21.27;81.19
51878;SHT31;37911;51.526;11.536;2023-06-22T01:33:44;21.22;81.32
51878;SHT31;37911;51.526;11.536;2023-06-22T01:36:48;21.24;81.22
51878;SHT31;37911;51.526;11.536;2023-06-22T01:39:52;21.15;81.36
51878;SHT31;37911;51.526;11.536;2023-06-22T01:42:57;21.04;81.44
51878;SHT31;37911;51.526;11.536;2023-06-22T01:46:04;21.04;81.68
51878;SHT31;37911;51.526;11.536;2023-06-22T01:49:07;21.02;81.59
51878;SHT31;37911;51.526;11.536;2023-06-22T01:52:11;21.04;81.08
51878;SHT31;37911;51.526;11.536;2023-06-22T01:55:14;20.94;81.10
51878;SHT31;37911;51.526;11.536;2023-06-22T01:58:20;20.91;81.24
51878;SHT31;37911;51.526;11.536;2023-06-22T02:01:31;20.81;81.36
51878;SHT31;37911;51.526;11.536;2023-06-22T02:04:39;20.80;81.43
51878;SHT31;37911;51.526;11.536;2023-06-22T02:07:58;20.68;81.47
51878;SHT31;37911;51.526;11.536;2023-06-22T02:11:06;20.70;81.49
51878;SHT31;37911;51.526;11.536;2023-06-22T02:14:10;20.71;81.21
51878;SHT31;37911;51.526;11.536;2023-06-22T02:17:18;20.71;81.19
51878;SHT31;37911;51.526;11.536;2023-06-22T02:20:21;20.57;81.64
51878;SHT31;37911;51.526;11.536;2023-06-22T02:23:26;20.54;81.78
51878;SHT31;37911;51.526;11.536;2023-06-22T02:26:30;20.58;81.54
51878;SHT31;37911;51.526;11.536;2023-06-22T02:29:36;20.50;81.79
51878;SHT31;37911;51.526;11.536;2023-06-22T02:32:42;20.40;82.06
51878;SHT31;37911;51.526;11.536;2023-06-22T02:35:50;20.45;81.88
51878;SHT31;37911;51.526;11.536;2023-06-22T02:38:56;20.40;81.82
51878;SHT31;37911;51.526;11.536;2023-06-22T02:42:01;20.45;81.19
51878;SHT31;37911;51.526;11.536;2023-06-22T02:45:06;20.43;81.33
51878;SHT31;37911;51.526;11.536;2023-06-22T02:48:12;20.40;81.43
51878;SHT31;37911;51.526;11.536;2023-06-22T02:51:16;20.32;81.59
51878;SHT31;37911;51.526;11.536;2023-06-22T02:54:19;20.23;81.78
51878;SHT31;37911;51.526;11.536;2023-06-22T02:57:25;20.19;82.11
51878;SHT31;37911;51.526;11.536;2023-06-22T03:00:28;20.17;82.18
51878;SHT31;37911;51.526;11.536;2023-06-22T03:03:36;20.22;82.03
51878;SHT31;37911;51.526;11.536;2023-06-22T03:06:39;20.17;81.99
51878;SHT31;37911;51.526;11.536;2023-06-22T03:09:43;20.12;82.05
51878;SHT31;37911;51.526;11.536;2023-06-22T03:12:46;20.14;82.16
51878;SHT31;37911;51.526;11.536;2023-06-22T03:15:50;20.19;82.10
51878;SHT31;37911;51.526;11.536;2023-06-22T03:18:56;20.10;81.97
51878;SHT31;37911;51.526;11.536;2023-06-22T03:22:00;20.22;81.33
51878;SHT31;37911;51.526;11.536;2023-06-22T03:25:04;20.26;81.41
51878;SHT31;37911;51.526;11.536;2023-06-22T03:28:12;20.24;81.38
51878;SHT31;37911;51.526;11.536;2023-06-22T03:31:16;20.23;81.33
51878;SHT31;37911;51.526;11.536;2023-06-22T03:34:24;20.23;81.11
51878;SHT31;37911;51.526;11.536;2023-06-22T03:37:28;20.32;80.80
51878;SHT31;37911;51.526;11.536;2023-06-22T03:40:32;20.34;80.67
51878;SHT31;37911;51.526;11.536;2023-06-22T03:43:35;20.37;80.58
51878;SHT31;37911;51.526;11.536;2023-06-22T03:46:39;20.36;80.75
51878;SHT31;37911;51.526;11.536;2023-06-22T03:49:45;20.34;80.90
51878;SHT31;37911;51.526;11.536;2023-06-22T03:52:48;20.32;80.73
51878;SHT31;37911;51.526;11.536;2023-06-22T03:55:53;20.36;80.62
51878;SHT31;37911;51.526;11.536;2023-06-22T03:58:56;20.40;80.45
51878;SHT31;37911;51.526;11.536;2023-06-22T04:02:00;20.41;80.79
51878;SHT31;37911;51.526;11.536;2023-06-22T04:05:06;20.45;80.37
51878;SHT31;37911;51.526;11.536;2023-06-22T04:08:10;20.51;80.11
51878;SHT31;37911;51.526;11.536;2023-06-22T04:11:13;20.44;80.63
51878;SHT31;37911;51.526;11.536;2023-06-22T04:14:16;20.48;80.55
51878;SHT31;37911;51.526;11.536;2023-06-22T04:17:20;20.53;80.65
51878;SHT31;37911;51.526;11.536;2023-06-22T04:20:28;20.57;80.58
51878;SHT31;37911;51.526;11.536;2023-06-22T04:23:31;20.60;80.25
51878;SHT31;37911;51.526;11.536;2023-06-22T04:26:35;20.68;80.42
51878;SHT31;37911;51.526;11.536;2023-06-22T04:29:38;20.77;80.22
51878;SHT31;37911;51.526;11.536;2023-06-22T04:32:49;20.83;79.95
51878;SHT31;37911;51.526;11.536;2023-06-22T04:35:59;20.94;80.09
51878;SHT31;37911;51.526;11.536;2023-06-22T04:39:05;21.01;79.64
51878;SHT31;37911;51.526;11.536;2023-06-22T04:42:10;21.02;79.62
51878;SHT31;37911;51.526;11.536;2023-06-22T04:45:13;20.94;79.61
51878;SHT31;37911;51.526;11.536;2023-06-22T04:48:16;20.99;80.02
51878;SHT31;37911;51.526;11.536;2023-06-22T04:51:22;20.95;80.08
51878;SHT31;37911;51.526;11.536;2023-06-22T04:54:30;21.12;79.50
51878;SHT31;37911;51.526;11.536;2023-06-22T04:57:33;21.21;79.34
51878;SHT31;37911;51.526;11.536;2023-06-22T05:00:39;21.29;79.18
51878;SHT31;37911;51.526;11.536;2023-06-22T05:03:45;21.24;79.93
51878;SHT31;37911;51.526;11.536;2023-06-22T05:06:51;21.22;80.65
51878;SHT31;37911;51.526;11.536;2023-06-22T05:09:55;21.27;81.87
51878;SHT31;37911;51.526;11.536;2023-06-22T05:12:58;21.27;82.24
51878;SHT31;37911;51.526;11.536;2023-06-22T05:16:01;21.24;82.93
51878;SHT31;37911;51.526;11.536;2023-06-22T05:19:06;21.21;83.29
51878;SHT31;37911;51.526;11.536;2023-06-22T05:22:12;21.27;83.61
51878;SHT31;37911;51.526;11.536;2023-06-22T05:25:15;21.31;83.25
51878;SHT31;37911;51.526;11.536;2023-06-22T05:28:19;21.32;82.55
51878;SHT31;37911;51.526;11.536;2023-06-22T05:31:23;21.36;81.99
51878;SHT31;37911;51.526;11.536;2023-06-22T05:34:27;21.41;80.71
51878;SHT31;37911;51.526;11.536;2023-06-22T05:37:33;21.52;80.09
51878;SHT31;37911;51.526;11.536;2023-06-22T05:40:36;21.59;80.26
51878;SHT31;37911;51.526;11.536;2023-06-22T05:43:40;21.73;79.69
51878;SHT31;37911;51.526;11.536;2023-06-22T05:46:43;21.86;79.51
51878;SHT31;37911;51.526;11.536;2023-06-22T05:49:48;22.01;78.85
51878;SHT31;37911;51.526;11.536;2023-06-22T05:52:54;22.14;78.82
51878;SHT31;37911;51.526;11.536;2023-06-22T05:55:57;22.29;78.61
51878;SHT31;37911;51.526;11.536;2023-06-22T05:59:01;22.44;77.92
51878;SHT31;37911;51.526;11.536;2023-06-22T06:02:04;22.55;77.51
51878;SHT31;37911;51.526;11.536;2023-06-22T06:05:08;22.58;77.84
51878;SHT31;37911;51.526;11.536;2023-06-22T06:08:16;22.64;77.02
51878;SHT31;37911;51.526;11.536;2023-06-22T06:11:19;22.69;76.94
51878;SHT31;37911;51.526;11.536;2023-06-22T06:14:22;22.75;76.52
51878;SHT31;37911;51.526;11.536;2023-06-22T06:17:26;22.78;76.29
51878;SHT31;37911;51.526;11.536;2023-06-22T06:20:31;22.72;75.16
51878;SHT31;37911;51.526;11.536;2023-06-22T06:23:39;22.60;75.40
51878;SHT31;37911;51.526;11.536;2023-06-22T06:26:42;22.45;75.98
51878;SHT31;37911;51.526;11.536;2023-06-22T06:29:46;22.44;77.07
51878;SHT31;37911;51.526;11.536;2023-06-22T06:32:50;22.54;77.39
51878;SHT31;37911;51.526;11.536;2023-06-22T06:35:53;22.58;77.31
51878;SHT31;37911;51.526;11.536;2023-06-22T06:38:59;22.57;76.91
51878;SHT31;37911;51.526;11.536;2023-06-22T06:42:05;22.71;77.34
51878;SHT31;37911;51.526;11.536;2023-06-22T06:45:10;22.76;76.14
51878;SHT31;37911;51.526;11.536;2023-06-22T06:48:13;22.90;76.01
51878;SHT31;37911;51.526;11.536;2023-06-22T06:51:18;23.46;75.54
51878;SHT31;37911;51.526;11.536;2023-06-22T06:54:24;23.71;73.69
51878;SHT31;37911;51.526;11.536;2023-06-22T06:57:28;24.22;72.27
51878;SHT31;37911;51.526;11.536;2023-06-22T07:00:31;24.37;71.73
51878;SHT31;37911;51.526;11.536;2023-06-22T07:03:36;24.35;71.79
51878;SHT31;37911;51.526;11.536;2023-06-22T07:06:39;24.21;72.22
51878;SHT31;37911;51.526;11.536;2023-06-22T07:09:45;24.32;71.84
51878;SHT31;37911;51.526;11.536;2023-06-22T07:12:49;24.18;72.10
51878;SHT31;37911;51.526;11.536;2023-06-22T07:15:52;24.18;71.92
51878;SHT31;37911;51.526;11.536;2023-06-22T07:18:55;24.40;71.84
51878;SHT31;37911;51.526;11.536;2023-06-22T07:21:59;24.65;70.91
51878;SHT31;37911;51.526;11.536;2023-06-22T07:25:08;24.78;70.28
51878;SHT31;37911;51.526;11.536;2023-06-22T07:28:14;24.79;70.37
51878;SHT31;37911;51.526;11.536;2023-06-22T07:31:18;24.89;69.76
51878;SHT31;37911;51.526;11.536;2023-06-22T07:34:22;25.08;68.50
51878;SHT31;37911;51.526;11.536;2023-06-22T07:37:27;25.22;68.77
51878;SHT31;37911;51.526;11.536;2023-06-22T07:40:33;25.25;67.86
51878;SHT31;37911;51.526;11.536;2023-06-22T07:43:36;25.23;68.79
51878;SHT31;37911;51.526;11.536;2023-06-22T07:46:40;25.18;68.20
51878;SHT31;37911;51.526;11.536;2023-06-22T07:49:43;25.12;67.69
51878;SHT31;37911;51.526;11.536;2023-06-22T07:52:47;25.06;68.28
51878;SHT31;37911;51.526;11.536;2023-06-22T07:55:55;24.96;68.05
51878;SHT31;37911;51.526;11.536;2023-06-22T07:58:59;25.15;67.91
51878;SHT31;37911;51.526;11.536;2023-06-22T08:02:04;25.50;67.80
51878;SHT31;37911;51.526;11.536;2023-06-22T08:05:10;26.20;65.32
51878;SHT31;37911;51.526;11.536;2023-06-22T08:08:13;26.78;63.50
51878;SHT31;37911;51.526;11.536;2023-06-22T08:11:21;27.66;60.88
51878;SHT31;37911;51.526;11.536;2023-06-22T08:14:26;28.25;59.20
51878;SHT31;37911;51.526;11.536;2023-06-22T08:17:30;28.31;57.37
51878;SHT31;37911;51.526;11.536;2023-06-22T08:20:34;28.29;57.70
51878;SHT31;37911;51.526;11.536;2023-06-22T08:23:38;28.52;57.38
51878;SHT31;37911;51.526;11.536;2023-06-22T08:26:46;28.73;56.62
51878;SHT31;37911;51.526;11.536;2023-06-22T08:29:49;28.58;56.95
51878;SHT31;37911;51.526;11.536;2023-06-22T08:32:58;28.12;57.35
51878;SHT31;37911;51.526;11.536;2023-06-22T08:36:01;28.05;57.85
51878;SHT31;37911;51.526;11.536;2023-06-22T08:39:06;28.21;58.73
51878;SHT31;37911;51.526;11.536;2023-06-22T08:42:12;28.24;57.57
51878;SHT31;37911;51.526;11.536;2023-06-22T08:45:16;28.21;57.15
51878;SHT31;37911;51.526;11.536;2023-06-22T08:48:19;28.38;57.20
51878;SHT31;37911;51.526;11.536;2023-06-22T08:51:22;28.88;55.74
51878;SHT31;37911;51.526;11.536;2023-06-22T08:54:26;29.81;54.18
51878;SHT31;37911;51.526;11.536;2023-06-22T08:57:31;29.73;52.88
51878;SHT31;37911;51.526;11.536;2023-06-22T09:00:38;30.25;52.17
51878;SHT31;37911;51.526;11.536;2023-06-22T09:03:41;30.39;51.21
51878;SHT31;37911;51.526;11.536;2023-06-22T09:06:44;30.78;51.18
51878;SHT31;37911;51.526;11.536;2023-06-22T09:09:48;31.04;50.54
51878;SHT31;37911;51.526;11.536;2023-06-22T09:12:54;31.34;49.26
51878;SHT31;37911;51.526;11.536;2023-06-22T09:15:57;31.35;47.90
51878;SHT31;37911;51.526;11.536;2023-06-22T09:19:02;31.34;47.79
51878;SHT31;37911;51.526;11.536;2023-06-22T09:22:06;31.27;48.00
51878;SHT31;37911;51.526;11.536;2023-06-22T09:25:09;31.29;49.63
51878;SHT31;37911;51.526;11.536;2023-06-22T09:28:15;31.81;47.52
51878;SHT31;37911;51.526;11.536;2023-06-22T09:31:19;32.46;46.18
51878;SHT31;37911;51.526;11.536;2023-06-22T09:34:25;32.67;46.32
51878;SHT31;37911;51.526;11.536;2023-06-22T09:37:30;32.80;44.87
51878;SHT31;37911;51.526;11.536;2023-06-22T09:40:36;32.02;46.43
51878;SHT31;37911;51.526;11.536;2023-06-22T09:43:43;32.38;47.17
51878;SHT31;37911;51.526;11.536;2023-06-22T09:46:46;32.24;44.72
51878;SHT31;37911;51.526;11.536;2023-06-22T09:49:49;32.24;44.08
51878;SHT31;37911;51.526;11.536;2023-06-22T09:52:53;31.60;44.60
51878;SHT31;37911;51.526;11.536;2023-06-22T09:55:56;32.01;43.96
51878;SHT31;37911;51.526;11.536;2023-06-22T09:59:03;31.80;43.38
51878;SHT31;37911;51.526;11.536;2023-06-22T10:02:07;31.78;43.83
51878;SHT31;37911;51.526;11.536;2023-06-22T10:05:12;32.14;43.21
51878;SHT31;37911;51.526;11.536;2023-06-22T10:08:17;31.96;43.83
51878;SHT31;37911;51.526;11.536;2023-06-22T10:11:22;32.43;42.74
51878;SHT31;37911;51.526;11.536;2023-06-22T10:14:33;32.65;42.32
51878;SHT31;37911;51.526;11.536;2023-06-22T10:17:36;33.26;41.94
51878;SHT31;37911;51.526;11.536;2023-06-22T10:20:41;33.80;41.54
51878;SHT31;37911;51.526;11.536;2023-06-22T10:23:48;34.08;40.07
51878;SHT31;37911;51.526;11.536;2023-06-22T10:26:52;34.23;39.07
51878;SHT31;37911;51.526;11.536;2023-06-22T10:29:59;34.31;38.84
51878;SHT31;37911;51.526;11.536;2023-06-22T10:33:02;34.31;38.65
51878;SHT31;37911;51.526;11.536;2023-06-22T10:36:06;34.29;38.82
51878;SHT31;37911;51.526;11.536;2023-06-22T10:39:10;34.52;38.65
51878;SHT31;37911;51.526;11.536;2023-06-22T10:42:14;34.73;37.30
51878;SHT31;37911;51.526;11.536;2023-06-22T10:45:20;34.86;37.28
51878;SHT31;37911;51.526;11.536;2023-06-22T10:48:23;34.75;38.08
51878;SHT31;37911;51.526;11.536;2023-06-22T10:51:26;34.42;37.83
51878;SHT31;37911;51.526;11.536;2023-06-22T10:54:33;34.13;39.17
51878;SHT31;37911;51.526;11.536;2023-06-22T10:57:37;34.67;38.86
51878;SHT31;37911;51.526;11.536;2023-06-22T11:00:46;34.60;38.81
51878;SHT31;37911;51.526;11.536;2023-06-22T11:03:50;34.01;39.20
51878;SHT31;37911;51.526;11.536;2023-06-22T11:06:54;33.04;38.81
51878;SHT31;37911;51.526;11.536;2023-06-22T11:09:57;33.14;40.18
51878;SHT31;37911;51.526;11.536;2023-06-22T11:13:01;33.10;39.09
51878;SHT31;37911;51.526;11.536;2023-06-22T11:16:07;33.43;39.09
51878;SHT31;37911;51.526;11.536;2023-06-22T11:19:10;33.68;39.00
51878;SHT31;37911;51.526;11.536;2023-06-22T11:22:14;33.24;39.65
51878;SHT31;37911;51.526;11.536;2023-06-22T11:25:17;32.45;41.42
51878;SHT31;37911;51.526;11.536;2023-06-22T11:28:21;33.24;38.80
51878;SHT31;37911;51.526;11.536;2023-06-22T11:31:26;33.24;37.34
51878;SHT31;37911;51.526;11.536;2023-06-22T11:34:30;33.47;39.05
51878;SHT31;37911;51.526;11.536;2023-06-22T11:37:33;33.34;39.47
51878;SHT31;37911;51.526;11.536;2023-06-22T11:40:37;33.26;39.29
51878;SHT31;37911;51.526;11.536;2023-06-22T11:43:40;33.57;39.37
51878;SHT31;37911;51.526;11.536;2023-06-22T11:46:46;33.17;38.47
51878;SHT31;37911;51.526;11.536;2023-06-22T11:49:50;33.16;39.24
51878;SHT31;37911;51.526;11.536;2023-06-22T11:52:53;32.97;39.03
51878;SHT31;37911;51.526;11.536;2023-06-22T11:55:58;33.16;39.07
51878;SHT31;37911;51.526;11.536;2023-06-22T11:59:01;33.40;37.83
51878;SHT31;37911;51.526;11.536;2023-06-22T12:02:08;33.34;37.75
51878;SHT31;37911;51.526;11.536;2023-06-22T12:05:11;33.64;36.84
51878;SHT31;37911;51.526;11.536;2023-06-22T12:08:15;33.51;38.69
51878;SHT31;37911;51.526;11.536;2023-06-22T12:11:19;33.51;38.06
51878;SHT31;37911;51.526;11.536;2023-06-22T12:14:22;32.87;38.16
51878;SHT31;37911;51.526;11.536;2023-06-22T12:17:28;32.89;38.06
51878;SHT31;37911;51.526;11.536;2023-06-22T12:20:34;33.37;37.17
51878;SHT31;37911;51.526;11.536;2023-06-22T12:23:41;33.03;38.71
51878;SHT31;37911;51.526;11.536;2023-06-22T12:26:44;33.35;38.04
51878;SHT31;37911;51.526;11.536;2023-06-22T12:29:49;33.58;37.75
51878;SHT31;37911;51.526;11.536;2023-06-22T12:32:55;33.92;36.97
51878;SHT31;37911;51.526;11.536;2023-06-22T12:36:00;33.64;37.14
51878;SHT31;37911;51.526;11.536;2023-06-22T12:39:05;33.80;36.94
51878;SHT31;37911;51.526;11.536;2023-06-22T12:42:12;33.47;37.41
51878;SHT31;37911;51.526;11.536;2023-06-22T12:45:16;33.33;36.99
51878;SHT31;37911;51.526;11.536;2023-06-22T12:48:25;33.00;37.85
51878;SHT31;37911;51.526;11.536;2023-06-22T12:51:29;32.80;38.17
51878;SHT31;37911;51.526;11.536;2023-06-22T12:54:37;33.23;38.99
51878;SHT31;37911;51.526;11.536;2023-06-22T12:57:41;32.96;38.62
51878;SHT31;37911;51.526;11.536;2023-06-22T13:00:48;33.50;38.49
51878;SHT31;37911;51.526;11.536;2023-06-22T13:03:54;33.95;37.76
51878;SHT31;37911;51.526;11.536;2023-06-22T13:06:57;33.53;38.39
51878;SHT31;37911;51.526;11.536;2023-06-22T13:10:00;33.23;37.88
51878;SHT31;37911;51.526;11.536;2023-06-22T13:13:05;33.23;38.28
51878;SHT31;37911;51.526;11.536;2023-06-22T13:16:09;33.31;39.06
51878;SHT31;37911;51.526;11.536;2023-06-22T13:19:15;33.50;38.13
51878;SHT31;37911;51.526;11.536;2023-06-22T13:22:28;33.57;37.87
51878;SHT31;37911;51.526;11.536;2023-06-22T13:25:33;33.37;37.99
51878;SHT31;37911;51.526;11.536;2023-06-22T13:28:37;33.84;38.09
51878;SHT31;37911;51.526;11.536;2023-06-22T13:31:41;33.95;37.22
51878;SHT31;37911;51.526;11.536;2023-06-22T13:34:47;34.13;37.73
51878;SHT31;37911;51.526;11.536;2023-06-22T13:37:53;34.15;37.33
51878;SHT31;37911;51.526;11.536;2023-06-22T13:40:57;34.11;37.14
51878;SHT31;37911;51.526;11.536;2023-06-22T13:44:01;33.80;36.70
51878;SHT31;37911;51.526;11.536;2023-06-22T13:47:06;33.41;37.36
51878;SHT31;37911;51.526;11.536;2023-06-22T13:50:12;33.31;38.03
51878;SHT31;37911;51.526;11.536;2023-06-22T13:53:18;33.16;38.30
51878;SHT31;37911;51.526;11.536;2023-06-22T13:56:21;32.97;38.78
51878;SHT31;37911;51.526;11.536;2023-06-22T13:59:25;33.09;38.38
51878;SHT31;37911;51.526;11.536;2023-06-22T14:02:29;33.17;39.27
51878;SHT31;37911;51.526;11.536;2023-06-22T14:05:35;32.76;39.00
51878;SHT31;37911;51.526;11.536;2023-06-22T14:08:38;32.90;38.57
51878;SHT31;37911;51.526;11.536;2023-06-22T14:11:41;33.04;39.11
51878;SHT31;37911;51.526;11.536;2023-06-22T14:14:46;33.03;38.95
51878;SHT31;37911;51.526;11.536;2023-06-22T14:17:54;32.70;39.97
51878;SHT31;37911;51.526;11.536;2023-06-22T14:21:00;32.40;39.84
51878;SHT31;37911;51.526;11.536;2023-06-22T14:24:04;32.32;39.93
51878;SHT31;37911;51.526;11.536;2023-06-22T14:27:08;32.12;40.54
51878;SHT31;37911;51.526;11.536;2023-06-22T14:30:12;32.18;42.32
51878;SHT31;37911;51.526;11.536;2023-06-22T14:33:15;32.19;40.82
51878;SHT31;37911;51.526;11.536;2023-06-22T14:36:21;32.09;41.08
51878;SHT31;37911;51.526;11.536;2023-06-22T14:39:25;32.06;41.09
51878;SHT31;37911;51.526;11.536;2023-06-22T14:42:30;31.82;41.29
51878;SHT31;37911;51.526;11.536;2023-06-22T14:45:33;31.64;41.70
51878;SHT31;37911;51.526;11.536;2023-06-22T14:48:38;31.84;41.44
51878;SHT31;37911;51.526;11.536;2023-06-22T14:51:44;32.35;41.45
51878;SHT31;37911;51.526;11.536;2023-06-22T14:54:47;32.46;41.29
51878;SHT31;37911;51.526;11.536;2023-06-22T14:57:53;32.18;41.70
51878;SHT31;37911;51.526;11.536;2023-06-22T15:00:56;32.38;41.61
51878;SHT31;37911;51.526;11.536;2023-06-22T15:03:59;32.73;41.23
51878;SHT31;37911;51.526;11.536;2023-06-22T15:07:07;32.90;40.71
51878;SHT31;37911;51.526;11.536;2023-06-22T15:10:12;32.65;40.67
51878;SHT31;37911;51.526;11.536;2023-06-22T15:13:17;31.68;41.69
51878;SHT31;37911;51.526;11.536;2023-06-22T15:16:20;31.64;43.22
51878;SHT31;37911;51.526;11.536;2023-06-22T15:19:25;31.50;43.04
51878;SHT31;37911;51.526;11.536;2023-06-22T15:22:30;31.43;43.82
51878;SHT31;37911;51.526;11.536;2023-06-22T15:25:35;31.31;44.65
51878;SHT31;37911;51.526;11.536;2023-06-22T15:28:39;31.29;44.52
51878;SHT31;37911;51.526;11.536;2023-06-22T15:31:44;31.23;44.87
51878;SHT31;37911;51.526;11.536;2023-06-22T15:34:47;31.45;44.89
51878;SHT31;37911;51.526;11.536;2023-06-22T15:37:56;31.26;44.62
51878;SHT31;37911;51.526;11.536;2023-06-22T15:41:00;31.40;45.14
51878;SHT31;37911;51.526;11.536;2023-06-22T15:44:05;31.03;45.03
51878;SHT31;37911;51.526;11.536;2023-06-22T15:47:08;30.96;45.18
51878;SHT31;37911;51.526;11.536;2023-06-22T15:50:12;30.83;45.59
51878;SHT31;37911;51.526;11.536;2023-06-22T15:53:18;30.90;45.76
51878;SHT31;37911;51.526;11.536;2023-06-22T15:56:21;30.70;45.55
51878;SHT31;37911;51.526;11.536;2023-06-22T15:59:26;30.68;46.23
51878;SHT31;37911;51.526;11.536;2023-06-22T16:02:29;30.59;45.90
51878;SHT31;37911;51.526;11.536;2023-06-22T16:05:33;30.45;46.14
51878;SHT31;37911;51.526;11.536;2023-06-22T16:08:39;30.45;46.47
51878;SHT31;37911;51.526;11.536;2023-06-22T16:11:43;30.31;46.60
51878;SHT31;37911;51.526;11.536;2023-06-22T16:14:46;30.29;47.00
51878;SHT31;37911;51.526;11.536;2023-06-22T16:17:50;30.27;46.89
51878;SHT31;37911;51.526;11.536;2023-06-22T16:20:53;30.27;46.91
51878;SHT31;37911;51.526;11.536;2023-06-22T16:23:59;30.04;47.50
51878;SHT31;37911;51.526;11.536;2023-06-22T16:27:03;29.94;48.13
51878;SHT31;37911;51.526;11.536;2023-06-22T16:30:09;29.87;48.15
51878;SHT31;37911;51.526;11.536;2023-06-22T16:33:12;29.87;48.33
51878;SHT31;37911;51.526;11.536;2023-06-22T16:36:15;29.80;48.60
51878;SHT31;37911;51.526;11.536;2023-06-22T16:39:21;29.65;49.09
51878;SHT31;37911;51.526;11.536;2023-06-22T16:42:25;29.65;49.22
51878;SHT31;37911;51.526;11.536;2023-06-22T16:45:28;29.67;49.54
51878;SHT31;37911;51.526;11.536;2023-06-22T16:48:33;29.57;50.04
51878;SHT31;37911;51.526;11.536;2023-06-22T16:51:36;29.53;50.03
51878;SHT31;37911;51.526;11.536;2023-06-22T16:54:42;29.46;50.04
51878;SHT31;37911;51.526;11.536;2023-06-22T16:57:49;29.43;50.79
51878;SHT31;37911;51.526;11.536;2023-06-22T17:00:53;29.35;50.76
51878;SHT31;37911;51.526;11.536;2023-06-22T17:04:01;29.24;50.67
51878;SHT31;37911;51.526;11.536;2023-06-22T17:07:10;29.20;50.54
51878;SHT31;37911;51.526;11.536;2023-06-22T17:10:17;29.12;50.98
51878;SHT31;37911;51.526;11.536;2023-06-22T17:13:20;29.02;51.46
51878;SHT31;37911;51.526;11.536;2023-06-22T17:16:24;28.98;51.64
51878;SHT31;37911;51.526;11.536;2023-06-22T17:19:28;28.86;51.84
51878;SHT31;37911;51.526;11.536;2023-06-22T17:22:31;28.88;51.95
51878;SHT31;37911;51.526;11.536;2023-06-22T17:25:39;28.83;52.27
51878;SHT31;37911;51.526;11.536;2023-06-22T17:28:46;28.72;52.23
51878;SHT31;37911;51.526;11.536;2023-06-22T17:31:55;28.62;52.70
51878;SHT31;37911;51.526;11.536;2023-06-22T17:34:58;28.53;53.05
51878;SHT31;37911;51.526;11.536;2023-06-22T17:38:02;28.49;53.60
51878;SHT31;37911;51.526;11.536;2023-06-22T17:41:08;28.48;53.29
51878;SHT31;37911;51.526;11.536;2023-06-22T17:44:12;28.44;53.55
51878;SHT31;37911;51.526;11.536;2023-06-22T17:47:23;28.32;53.93
51878;SHT31;37911;51.526;11.536;2023-06-22T17:50:27;28.38;53.61
51878;SHT31;37911;51.526;11.536;2023-06-22T17:53:30;28.37;53.80
51878;SHT31;37911;51.526;11.536;2023-06-22T17:56:37;28.37;53.82
51878;SHT31;37911;51.526;11.536;2023-06-22T17:59:40;28.34;53.98
51878;SHT31;37911;51.526;11.536;2023-06-22T18:02:44;28.31;54.19
51878;SHT31;37911;51.526;11.536;2023-06-22T18:05:47;28.31;54.26
51878;SHT31;37911;51.526;11.536;2023-06-22T18:08:51;28.34;54.22
51878;SHT31;37911;51.526;11.536;2023-06-22T18:12:02;28.32;54.53
51878;SHT31;37911;51.526;11.536;2023-06-22T18:15:08;28.27;54.69
51878;SHT31;37911;51.526;11.536;2023-06-22T18:18:12;28.22;54.57
51878;SHT31;37911;51.526;11.536;2023-06-22T18:21:16;27.81;54.96
51878;SHT31;37911;51.526;11.536;2023-06-22T18:24:22;27.02;56.69
51878;SHT31;37911;51.526;11.536;2023-06-22T18:27:29;26.65;57.62
51878;SHT31;37911;51.526;11.536;2023-06-22T18:30:32;26.21;58.73
51878;SHT31;37911;51.526;11.536;2023-06-22T18:33:36;26.13;59.31
51878;SHT31;37911;51.526;11.536;2023-06-22T18:36:42;26.22;58.43
51878;SHT31;37911;51.526;11.536;2023-06-22T18:39:52;26.22;58.86
51878;SHT31;37911;51.526;11.536;2023-06-22T18:43:01;26.07;60.56
51878;SHT31;37911;51.526;11.536;2023-06-22T18:46:28;25.62;63.09
51878;SHT31;37911;51.526;11.536;2023-06-22T18:49:33;25.29;64.44
51878;SHT31;37911;51.526;11.536;2023-06-22T18:52:39;25.12;65.62
51878;SHT31;37911;51.526;11.536;2023-06-22T18:55:44;25.09;64.96
51878;SHT31;37911;51.526;11.536;2023-06-22T18:58:57;24.85;66.88
51878;SHT31;37911;51.526;11.536;2023-06-22T19:02:01;24.40;70.19
51878;SHT31;37911;51.526;11.536;2023-06-22T19:05:09;23.90;71.95
51878;SHT31;37911;51.526;11.536;2023-06-22T19:08:14;23.74;73.36